Share

Raymond, MS (39154)

11:40 PM CDT on April 23, 2014 (GMT -0500)
John Bell Williams, Raymond (KJVW) Elev 246 ft | 32.30 °N, 90.41 °W | Change Station
Active Advisory: Flood Warning

Current weather conditions updated 25 minutes ago

Haze
Haze
55 °F
Feels Like 55 °F
N
0
Wind Variable Wind from North
Sunrise 6:23 AM
Sunset 7:36 PM
Moon Waning Crescent

Tomorrow is forecast to be Warmer than today.

Pressure 29.92 in
Visibility 6.0 miles
Clouds Clear
Dew Point 50 °F
Humidity 82%
Rainfall 0.00 in
Snow Depth Not available.
UV 0 out of 16
Pollen 7.90 out of 12
Air Quality Not available.
Flu Activity No Activity
METAR KJVW 240415Z AUTO 00000KT 6SM HZ CLR 13/10 A2992 RMK AO2 TSNO

More Conditions Fewer Conditions

Pressure 29.92 in
Visibility 6.0 miles
Clouds Clear
Dew Point 50 °F
Humidity 82%
Rainfall 0.00 in
Snow Depth Not available.
UV 0 out of 16
Pollen 7.90 out of 12
Air Quality Not available.
Flu Activity No Activity
METAR KJVW 240415Z AUTO 00000KT 6SM HZ CLR 13/10 A2992 RMK AO2 TSNO

More Conditions Fewer Conditions

10-Day Weather Forecast

Almanac

Astronomy

Apr. 23, 2014 Rise Set
Actual Time 6:23 AM CDT 7:36 PM CDT
Civil Twilight 5:58 AM CDT 8:02 PM CDT
Nautical Twilight 5:27 AM CDT 8:33 PM CDT
Astronomical Twilight 4:56 AM CDT 9:04 PM CDT
Moon 2:34 AM CDT (4/23) 2:05 PM CDT (4/23)
Length of Visible Light 14h 04m
Length of Day
13h 13m
Tomorrow will be 1m 48s longer.
Waning Crescent, 29% of the Moon is Illuminated
Apr 24
Waning Crescent
Apr 29
New
May 6
First Quarter
May 14
Full
May 21
Last Quarter

Yesterday's Extremes

State Highs State Lows

Community

  • Stacked
    Stacked
  • Balance
    Balance
  • Nestled In
    Nestled In
  • Stunning Sunrise
    Stunning Sunrise
  • spring flowers
    spring flowers

WunderPhotos

Upload Photos

1,704,562 photos uploaded!

WunderBlogs® & News

Nearby

Snow Depth

Station Depth Elevation
No new snow has been reported.

Coastal Water Temperatures

Place Temperature
No Stations Reporting

Earthquake Activity

City Distance Mag. Time & Date
No recent earthquake activity has been reported nearby.
Minimum magnitude displayed is 2.5.

Nearby Weather Stations

Station Location Temp. Dew Point Humidity Wind Precip. Elev Updated Type
RAWS COPIAH MS, Gallman, MS 62 °F 50 °F 64% NE  at  2 mph 0.00 in / hr 149 ft 10:09 PM CDT MADIS
Florence, FLORENCE, MS 58.3 °F 57 °F 94% NE  at  0.0 mph - / hr 367 ft 11:33 PM CDT Normal
Crystal Springs Farm Mkt, Crystal Springs, MS 57.6 °F 54 °F 89% North  at  0.0 mph - / hr 453 ft 11:39 PM CDT Normal
Lake Park, Vicksburg, MS 58.5 °F 54 °F 85% NE  at  0.0 mph 0.00 in / hr 249 ft 11:35 PM CDT Normal

Show More Stations Show Fewer Stations

What do you think?

We're not finished. Please let us know what you like, what you don't like, and what you are still missing.